sensor_id;sensor_type;location;lat;lon;timestamp;P1;durP1;ratioP1;P2;durP2;ratioP2
26269;SDS011;15937;50.612;6.656;2023-04-15T00:03:45;15.45;;;4.57;;
26269;SDS011;15937;50.612;6.656;2023-04-15T00:07:48;8.38;;;4.25;;
26269;SDS011;15937;50.612;6.656;2023-04-15T00:11:49;7.88;;;3.60;;
26269;SDS011;15937;50.612;6.656;2023-04-15T00:15:51;8.60;;;3.95;;
26269;SDS011;15937;50.612;6.656;2023-04-15T00:19:53;7.63;;;3.38;;
26269;SDS011;15937;50.612;6.656;2023-04-15T00:23:55;9.30;;;3.50;;
26269;SDS011;15937;50.612;6.656;2023-04-15T00:27:56;7.43;;;3.33;;
26269;SDS011;15937;50.612;6.656;2023-04-15T00:31:58;6.88;;;3.13;;
26269;SDS011;15937;50.612;6.656;2023-04-15T00:36:00;7.05;;;3.40;;
26269;SDS011;15937;50.612;6.656;2023-04-15T00:40:03;7.85;;;3.42;;
26269;SDS011;15937;50.612;6.656;2023-04-15T00:44:06;6.63;;;3.10;;
26269;SDS011;15937;50.612;6.656;2023-04-15T00:48:07;8.10;;;2.90;;
26269;SDS011;15937;50.612;6.656;2023-04-15T00:52:10;5.93;;;3.30;;
26269;SDS011;15937;50.612;6.656;2023-04-15T00:56:12;12.02;;;3.35;;
26269;SDS011;15937;50.612;6.656;2023-04-15T01:00:14;7.63;;;3.57;;
26269;SDS011;15937;50.612;6.656;2023-04-15T01:04:16;7.40;;;3.00;;
26269;SDS011;15937;50.612;6.656;2023-04-15T01:08:18;5.45;;;3.55;;
26269;SDS011;15937;50.612;6.656;2023-04-15T01:12:20;5.95;;;2.80;;
26269;SDS011;15937;50.612;6.656;2023-04-15T01:16:22;13.77;;;3.45;;
26269;SDS011;15937;50.612;6.656;2023-04-15T01:20:24;4.55;;;3.17;;
26269;SDS011;15937;50.612;6.656;2023-04-15T01:24:26;10.93;;;3.40;;
26269;SDS011;15937;50.612;6.656;2023-04-15T01:28:30;7.28;;;3.42;;
26269;SDS011;15937;50.612;6.656;2023-04-15T01:32:33;11.27;;;4.95;;
26269;SDS011;15937;50.612;6.656;2023-04-15T01:36:34;10.73;;;4.93;;
26269;SDS011;15937;50.612;6.656;2023-04-15T01:40:36;15.43;;;4.97;;
26269;SDS011;15937;50.612;6.656;2023-04-15T01:44:38;15.18;;;4.40;;
26269;SDS011;15937;50.612;6.656;2023-04-15T01:48:40;13.00;;;4.13;;
26269;SDS011;15937;50.612;6.656;2023-04-15T01:52:42;8.43;;;3.90;;
26269;SDS011;15937;50.612;6.656;2023-04-15T01:56:44;11.30;;;3.95;;
26269;SDS011;15937;50.612;6.656;2023-04-15T02:00:46;9.32;;;3.47;;
26269;SDS011;15937;50.612;6.656;2023-04-15T02:04:48;14.50;;;3.20;;
26269;SDS011;15937;50.612;6.656;2023-04-15T02:08:50;8.40;;;3.13;;
26269;SDS011;15937;50.612;6.656;2023-04-15T02:12:52;4.78;;;3.30;;
26269;SDS011;15937;50.612;6.656;2023-04-15T02:16:54;11.00;;;3.78;;
26269;SDS011;15937;50.612;6.656;2023-04-15T02:20:56;8.53;;;2.97;;
26269;SDS011;15937;50.612;6.656;2023-04-15T02:24:59;6.87;;;2.90;;
26269;SDS011;15937;50.612;6.656;2023-04-15T02:29:00;7.00;;;2.78;;
26269;SDS011;15937;50.612;6.656;2023-04-15T02:33:03;3.10;;;2.15;;
26269;SDS011;15937;50.612;6.656;2023-04-15T02:37:05;6.72;;;3.00;;
26269;SDS011;15937;50.612;6.656;2023-04-15T02:41:11;9.70;;;3.25;;
26269;SDS011;15937;50.612;6.656;2023-04-15T02:45:12;7.22;;;2.97;;
26269;SDS011;15937;50.612;6.656;2023-04-15T02:49:14;5.45;;;2.60;;
26269;SDS011;15937;50.612;6.656;2023-04-15T02:53:16;10.20;;;2.40;;
26269;SDS011;15937;50.612;6.656;2023-04-15T02:57:18;4.85;;;2.38;;
26269;SDS011;15937;50.612;6.656;2023-04-15T03:01:20;7.93;;;2.55;;
26269;SDS011;15937;50.612;6.656;2023-04-15T03:05:22;7.25;;;2.65;;
26269;SDS011;15937;50.612;6.656;2023-04-15T03:09:25;6.95;;;2.35;;
26269;SDS011;15937;50.612;6.656;2023-04-15T03:13:27;14.35;;;3.13;;
26269;SDS011;15937;50.612;6.656;2023-04-15T03:17:29;10.45;;;2.50;;
26269;SDS011;15937;50.612;6.656;2023-04-15T03:21:31;6.95;;;3.00;;
26269;SDS011;15937;50.612;6.656;2023-04-15T03:25:33;12.73;;;2.95;;
26269;SDS011;15937;50.612;6.656;2023-04-15T03:29:40;6.70;;;3.05;;
26269;SDS011;15937;50.612;6.656;2023-04-15T03:33:43;4.45;;;2.67;;
26269;SDS011;15937;50.612;6.656;2023-04-15T03:37:45;8.38;;;2.50;;
26269;SDS011;15937;50.612;6.656;2023-04-15T03:41:49;2.90;;;1.98;;
26269;SDS011;15937;50.612;6.656;2023-04-15T03:45:50;9.05;;;2.80;;
26269;SDS011;15937;50.612;6.656;2023-04-15T03:49:52;4.82;;;2.33;;
26269;SDS011;15937;50.612;6.656;2023-04-15T03:53:54;4.05;;;2.00;;
26269;SDS011;15937;50.612;6.656;2023-04-15T03:57:56;12.00;;;2.67;;
26269;SDS011;15937;50.612;6.656;2023-04-15T04:01:58;10.60;;;2.85;;
26269;SDS011;15937;50.612;6.656;2023-04-15T04:05:59;7.63;;;2.80;;
26269;SDS011;15937;50.612;6.656;2023-04-15T04:10:02;6.50;;;2.80;;
26269;SDS011;15937;50.612;6.656;2023-04-15T04:14:04;9.50;;;3.33;;
26269;SDS011;15937;50.612;6.656;2023-04-15T04:18:06;6.00;;;2.38;;
26269;SDS011;15937;50.612;6.656;2023-04-15T04:22:08;14.20;;;2.60;;
26269;SDS011;15937;50.612;6.656;2023-04-15T04:26:11;3.47;;;1.88;;
26269;SDS011;15937;50.612;6.656;2023-04-15T04:30:14;8.73;;;3.08;;
26269;SDS011;15937;50.612;6.656;2023-04-15T04:34:16;9.20;;;2.58;;
26269;SDS011;15937;50.612;6.656;2023-04-15T04:38:19;6.70;;;2.53;;
26269;SDS011;15937;50.612;6.656;2023-04-15T04:42:21;8.80;;;2.50;;
26269;SDS011;15937;50.612;6.656;2023-04-15T04:46:23;6.63;;;2.80;;
26269;SDS011;15937;50.612;6.656;2023-04-15T04:50:25;2.75;;;2.35;;
26269;SDS011;15937;50.612;6.656;2023-04-15T04:54:27;6.18;;;2.90;;
26269;SDS011;15937;50.612;6.656;2023-04-15T04:58:30;6.10;;;2.72;;
26269;SDS011;15937;50.612;6.656;2023-04-15T05:02:32;6.78;;;3.45;;
26269;SDS011;15937;50.612;6.656;2023-04-15T05:06:34;7.15;;;2.40;;
26269;SDS011;15937;50.612;6.656;2023-04-15T05:10:37;4.68;;;2.50;;
26269;SDS011;15937;50.612;6.656;2023-04-15T05:14:39;4.18;;;2.58;;
26269;SDS011;15937;50.612;6.656;2023-04-15T05:18:41;11.73;;;2.40;;
26269;SDS011;15937;50.612;6.656;2023-04-15T05:22:42;5.68;;;2.17;;
26269;SDS011;15937;50.612;6.656;2023-04-15T05:26:44;9.13;;;2.50;;
26269;SDS011;15937;50.612;6.656;2023-04-15T05:30:46;8.52;;;2.92;;
26269;SDS011;15937;50.612;6.656;2023-04-15T05:34:48;9.18;;;2.53;;
26269;SDS011;15937;50.612;6.656;2023-04-15T05:38:50;7.07;;;2.17;;
26269;SDS011;15937;50.612;6.656;2023-04-15T05:42:51;10.07;;;2.35;;
26269;SDS011;15937;50.612;6.656;2023-04-15T05:46:53;5.55;;;2.83;;
26269;SDS011;15937;50.612;6.656;2023-04-15T05:50:55;6.95;;;2.70;;
26269;SDS011;15937;50.612;6.656;2023-04-15T05:54:57;5.38;;;1.98;;
26269;SDS011;15937;50.612;6.656;2023-04-15T05:58:58;7.60;;;2.50;;
26269;SDS011;15937;50.612;6.656;2023-04-15T06:03:01;7.10;;;2.08;;
26269;SDS011;15937;50.612;6.656;2023-04-15T06:11:06;7.57;;;2.60;;
26269;SDS011;15937;50.612;6.656;2023-04-15T06:15:07;6.78;;;3.22;;
26269;SDS011;15937;50.612;6.656;2023-04-15T06:19:12;8.48;;;3.28;;
26269;SDS011;15937;50.612;6.656;2023-04-15T06:23:14;9.02;;;2.75;;
26269;SDS011;15937;50.612;6.656;2023-04-15T06:27:16;10.10;;;3.35;;
26269;SDS011;15937;50.612;6.656;2023-04-15T06:31:18;8.10;;;3.60;;
26269;SDS011;15937;50.612;6.656;2023-04-15T06:35:20;11.18;;;3.50;;
26269;SDS011;15937;50.612;6.656;2023-04-15T06:39:23;11.60;;;4.22;;
26269;SDS011;15937;50.612;6.656;2023-04-15T06:43:25;14.57;;;4.55;;
26269;SDS011;15937;50.612;6.656;2023-04-15T06:47:27;17.80;;;4.13;;
26269;SDS011;15937;50.612;6.656;2023-04-15T06:51:28;17.50;;;5.00;;
26269;SDS011;15937;50.612;6.656;2023-04-15T06:55:31;11.07;;;4.63;;
26269;SDS011;15937;50.612;6.656;2023-04-15T06:59:34;9.77;;;4.30;;
26269;SDS011;15937;50.612;6.656;2023-04-15T07:03:36;10.50;;;3.77;;
26269;SDS011;15937;50.612;6.656;2023-04-15T07:07:40;9.88;;;2.13;;
26269;SDS011;15937;50.612;6.656;2023-04-15T07:11:42;8.80;;;2.25;;
26269;SDS011;15937;50.612;6.656;2023-04-15T07:15:44;3.60;;;2.20;;
26269;SDS011;15937;50.612;6.656;2023-04-15T07:19:46;8.80;;;3.20;;
26269;SDS011;15937;50.612;6.656;2023-04-15T07:23:47;10.13;;;2.40;;
26269;SDS011;15937;50.612;6.656;2023-04-15T07:27:49;4.90;;;2.63;;
26269;SDS011;15937;50.612;6.656;2023-04-15T07:31:51;9.77;;;2.20;;
26269;SDS011;15937;50.612;6.656;2023-04-15T07:35:53;4.80;;;2.40;;
26269;SDS011;15937;50.612;6.656;2023-04-15T07:39:55;8.50;;;2.53;;
26269;SDS011;15937;50.612;6.656;2023-04-15T07:43:57;7.75;;;2.78;;
26269;SDS011;15937;50.612;6.656;2023-04-15T07:47:59;62.67;;;5.93;;
26269;SDS011;15937;50.612;6.656;2023-04-15T07:52:02;11.90;;;2.85;;
26269;SDS011;15937;50.612;6.656;2023-04-15T07:56:04;5.68;;;2.78;;
26269;SDS011;15937;50.612;6.656;2023-04-15T08:00:07;9.55;;;4.47;;
26269;SDS011;15937;50.612;6.656;2023-04-15T08:04:09;15.55;;;3.55;;
26269;SDS011;15937;50.612;6.656;2023-04-15T08:08:11;11.97;;;3.30;;
26269;SDS011;15937;50.612;6.656;2023-04-15T08:12:12;7.53;;;3.80;;
26269;SDS011;15937;50.612;6.656;2023-04-15T08:16:19;8.55;;;3.42;;
26269;SDS011;15937;50.612;6.656;2023-04-15T08:20:22;6.55;;;3.30;;
26269;SDS011;15937;50.612;6.656;2023-04-15T08:24:24;6.10;;;3.47;;
26269;SDS011;15937;50.612;6.656;2023-04-15T08:28:26;12.13;;;4.40;;
26269;SDS011;15937;50.612;6.656;2023-04-15T08:32:28;8.75;;;4.43;;
26269;SDS011;15937;50.612;6.656;2023-04-15T08:36:30;11.90;;;4.40;;
26269;SDS011;15937;50.612;6.656;2023-04-15T08:40:34;11.50;;;4.82;;
26269;SDS011;15937;50.612;6.656;2023-04-15T08:44:46;14.23;;;4.13;;
26269;SDS011;15937;50.612;6.656;2023-04-15T08:48:49;9.50;;;5.33;;
26269;SDS011;15937;50.612;6.656;2023-04-15T08:52:53;15.18;;;7.00;;
26269;SDS011;15937;50.612;6.656;2023-04-15T08:56:58;16.33;;;7.40;;
26269;SDS011;15937;50.612;6.656;2023-04-15T09:01:02;14.82;;;7.53;;
26269;SDS011;15937;50.612;6.656;2023-04-15T09:05:04;16.85;;;7.03;;
26269;SDS011;15937;50.612;6.656;2023-04-15T09:09:07;14.70;;;7.35;;
26269;SDS011;15937;50.612;6.656;2023-04-15T09:13:09;33.38;;;8.18;;
26269;SDS011;15937;50.612;6.656;2023-04-15T09:17:10;13.45;;;7.65;;
26269;SDS011;15937;50.612;6.656;2023-04-15T09:21:13;40.15;;;9.50;;
26269;SDS011;15937;50.612;6.656;2023-04-15T09:29:24;15.90;;;8.73;;
26269;SDS011;15937;50.612;6.656;2023-04-15T09:33:27;15.63;;;8.90;;
26269;SDS011;15937;50.612;6.656;2023-04-15T09:37:33;14.77;;;7.85;;
26269;SDS011;15937;50.612;6.656;2023-04-15T09:41:36;18.13;;;8.15;;
26269;SDS011;15937;50.612;6.656;2023-04-15T09:45:38;20.63;;;8.40;;
26269;SDS011;15937;50.612;6.656;2023-04-15T09:49:56;16.08;;;7.43;;
26269;SDS011;15937;50.612;6.656;2023-04-15T09:53:59;13.55;;;8.68;;
26269;SDS011;15937;50.612;6.656;2023-04-15T09:58:02;27.60;;;8.10;;
26269;SDS011;15937;50.612;6.656;2023-04-15T10:02:09;22.70;;;8.85;;
26269;SDS011;15937;50.612;6.656;2023-04-15T10:06:13;24.48;;;9.05;;
26269;SDS011;15937;50.612;6.656;2023-04-15T10:10:16;17.98;;;8.82;;
26269;SDS011;15937;50.612;6.656;2023-04-15T10:14:18;13.07;;;6.20;;
26269;SDS011;15937;50.612;6.656;2023-04-15T10:18:20;11.47;;;6.87;;
26269;SDS011;15937;50.612;6.656;2023-04-15T10:22:26;11.98;;;6.85;;
26269;SDS011;15937;50.612;6.656;2023-04-15T10:26:28;10.40;;;5.23;;
26269;SDS011;15937;50.612;6.656;2023-04-15T10:30:31;8.15;;;4.85;;
26269;SDS011;15937;50.612;6.656;2023-04-15T10:34:33;7.50;;;4.50;;
26269;SDS011;15937;50.612;6.656;2023-04-15T10:38:37;9.57;;;3.92;;
26269;SDS011;15937;50.612;6.656;2023-04-15T10:42:40;10.07;;;3.47;;
26269;SDS011;15937;50.612;6.656;2023-04-15T10:46:45;23.20;;;3.80;;
26269;SDS011;15937;50.612;6.656;2023-04-15T10:51:05;7.28;;;3.65;;
26269;SDS011;15937;50.612;6.656;2023-04-15T10:55:14;6.80;;;3.15;;
26269;SDS011;15937;50.612;6.656;2023-04-15T10:59:19;6.22;;;3.70;;
26269;SDS011;15937;50.612;6.656;2023-04-15T11:03:38;5.78;;;3.40;;
26269;SDS011;15937;50.612;6.656;2023-04-15T11:16:24;9.30;;;4.15;;
26269;SDS011;15937;50.612;6.656;2023-04-15T11:20:26;7.13;;;4.55;;
26269;SDS011;15937;50.612;6.656;2023-04-15T11:24:28;14.50;;;5.32;;
26269;SDS011;15937;50.612;6.656;2023-04-15T11:28:31;8.63;;;4.78;;
26269;SDS011;15937;50.612;6.656;2023-04-15T11:32:33;10.43;;;5.22;;
26269;SDS011;15937;50.612;6.656;2023-04-15T11:36:35;6.68;;;4.28;;
26269;SDS011;15937;50.612;6.656;2023-04-15T11:40:37;6.75;;;3.45;;
26269;SDS011;15937;50.612;6.656;2023-04-15T11:44:39;9.97;;;5.93;;
26269;SDS011;15937;50.612;6.656;2023-04-15T11:48:45;6.93;;;4.82;;
26269;SDS011;15937;50.612;6.656;2023-04-15T11:52:57;6.90;;;4.07;;
26269;SDS011;15937;50.612;6.656;2023-04-15T11:57:01;7.57;;;4.20;;
26269;SDS011;15937;50.612;6.656;2023-04-15T12:01:03;8.10;;;4.70;;
26269;SDS011;15937;50.612;6.656;2023-04-15T12:05:07;5.28;;;3.88;;
26269;SDS011;15937;50.612;6.656;2023-04-15T12:09:13;11.25;;;4.45;;
26269;SDS011;15937;50.612;6.656;2023-04-15T12:13:18;3.42;;;2.70;;
26269;SDS011;15937;50.612;6.656;2023-04-15T12:17:19;5.55;;;3.53;;
26269;SDS011;15937;50.612;6.656;2023-04-15T12:21:24;6.10;;;4.13;;
26269;SDS011;15937;50.612;6.656;2023-04-15T12:25:34;13.02;;;4.80;;
26269;SDS011;15937;50.612;6.656;2023-04-15T12:29:36;6.80;;;4.95;;
26269;SDS011;15937;50.612;6.656;2023-04-15T12:33:39;10.10;;;5.38;;
26269;SDS011;15937;50.612;6.656;2023-04-15T12:37:41;8.70;;;5.95;;
26269;SDS011;15937;50.612;6.656;2023-04-15T12:41:43;8.93;;;6.13;;
26269;SDS011;15937;50.612;6.656;2023-04-15T12:45:45;9.15;;;6.30;;
26269;SDS011;15937;50.612;6.656;2023-04-15T12:49:46;14.95;;;6.57;;
26269;SDS011;15937;50.612;6.656;2023-04-15T12:53:49;13.80;;;6.18;;
26269;SDS011;15937;50.612;6.656;2023-04-15T12:57:51;7.65;;;6.13;;
26269;SDS011;15937;50.612;6.656;2023-04-15T13:01:53;9.32;;;8.32;;
26269;SDS011;15937;50.612;6.656;2023-04-15T13:05:55;12.35;;;8.88;;
26269;SDS011;15937;50.612;6.656;2023-04-15T13:09:57;8.97;;;7.33;;
26269;SDS011;15937;50.612;6.656;2023-04-15T13:14:00;11.50;;;7.72;;
26269;SDS011;15937;50.612;6.656;2023-04-15T13:18:06;9.20;;;5.32;;
26269;SDS011;15937;50.612;6.656;2023-04-15T13:22:08;7.20;;;5.20;;
26269;SDS011;15937;50.612;6.656;2023-04-15T13:26:10;7.78;;;4.55;;
26269;SDS011;15937;50.612;6.656;2023-04-15T13:30:12;5.18;;;3.83;;
26269;SDS011;15937;50.612;6.656;2023-04-15T13:34:14;5.82;;;4.25;;
26269;SDS011;15937;50.612;6.656;2023-04-15T13:38:16;7.25;;;4.57;;
26269;SDS011;15937;50.612;6.656;2023-04-15T13:42:17;5.57;;;4.00;;
26269;SDS011;15937;50.612;6.656;2023-04-15T13:46:19;6.78;;;4.15;;
26269;SDS011;15937;50.612;6.656;2023-04-15T13:50:21;11.93;;;4.85;;
26269;SDS011;15937;50.612;6.656;2023-04-15T13:54:23;5.20;;;3.75;;
26269;SDS011;15937;50.612;6.656;2023-04-15T13:58:39;5.70;;;4.03;;
26269;SDS011;15937;50.612;6.656;2023-04-15T14:02:41;12.95;;;4.70;;
26269;SDS011;15937;50.612;6.656;2023-04-15T14:06:43;11.25;;;5.82;;
26269;SDS011;15937;50.612;6.656;2023-04-15T14:10:45;15.30;;;6.45;;
26269;SDS011;15937;50.612;6.656;2023-04-15T14:18:50;10.40;;;4.90;;
26269;SDS011;15937;50.612;6.656;2023-04-15T14:22:52;7.55;;;4.80;;
26269;SDS011;15937;50.612;6.656;2023-04-15T14:26:53;5.50;;;3.60;;
26269;SDS011;15937;50.612;6.656;2023-04-15T14:30:57;7.43;;;3.83;;
26269;SDS011;15937;50.612;6.656;2023-04-15T14:34:58;10.27;;;3.83;;
26269;SDS011;15937;50.612;6.656;2023-04-15T14:39:00;7.78;;;4.50;;
26269;SDS011;15937;50.612;6.656;2023-04-15T14:43:03;8.23;;;4.22;;
26269;SDS011;15937;50.612;6.656;2023-04-15T14:47:05;9.88;;;4.43;;
26269;SDS011;15937;50.612;6.656;2023-04-15T14:51:07;3.60;;;3.03;;
26269;SDS011;15937;50.612;6.656;2023-04-15T14:55:09;6.03;;;3.50;;
26269;SDS011;15937;50.612;6.656;2023-04-15T14:59:12;7.35;;;3.97;;
26269;SDS011;15937;50.612;6.656;2023-04-15T15:03:14;7.75;;;4.53;;
26269;SDS011;15937;50.612;6.656;2023-04-15T15:07:25;9.57;;;4.43;;
26269;SDS011;15937;50.612;6.656;2023-04-15T15:12:02;11.43;;;5.35;;
26269;SDS011;15937;50.612;6.656;2023-04-15T15:16:04;9.38;;;4.35;;
26269;SDS011;15937;50.612;6.656;2023-04-15T15:20:06;7.88;;;4.45;;
26269;SDS011;15937;50.612;6.656;2023-04-15T15:24:08;12.43;;;5.03;;
26269;SDS011;15937;50.612;6.656;2023-04-15T15:28:11;13.00;;;4.90;;
26269;SDS011;15937;50.612;6.656;2023-04-15T15:32:13;13.57;;;4.50;;
26269;SDS011;15937;50.612;6.656;2023-04-15T15:36:15;9.15;;;5.00;;
26269;SDS011;15937;50.612;6.656;2023-04-15T15:40:17;9.68;;;4.20;;
26269;SDS011;15937;50.612;6.656;2023-04-15T15:44:19;8.55;;;4.55;;
26269;SDS011;15937;50.612;6.656;2023-04-15T15:48:24;7.68;;;4.40;;
26269;SDS011;15937;50.612;6.656;2023-04-15T15:52:26;9.73;;;4.55;;
26269;SDS011;15937;50.612;6.656;2023-04-15T15:56:27;11.32;;;4.95;;
26269;SDS011;15937;50.612;6.656;2023-04-15T16:00:29;9.27;;;4.68;;
26269;SDS011;15937;50.612;6.656;2023-04-15T16:04:31;8.13;;;3.90;;
26269;SDS011;15937;50.612;6.656;2023-04-15T16:08:33;10.75;;;4.18;;
26269;SDS011;15937;50.612;6.656;2023-04-15T16:12:35;8.48;;;4.40;;
26269;SDS011;15937;50.612;6.656;2023-04-15T16:16:39;6.75;;;4.25;;
26269;SDS011;15937;50.612;6.656;2023-04-15T16:20:41;7.95;;;4.32;;
26269;SDS011;15937;50.612;6.656;2023-04-15T16:24:44;9.37;;;4.37;;
26269;SDS011;15937;50.612;6.656;2023-04-15T16:28:47;9.05;;;4.00;;
26269;SDS011;15937;50.612;6.656;2023-04-15T16:32:49;11.60;;;5.03;;
26269;SDS011;15937;50.612;6.656;2023-04-15T16:36:51;9.68;;;3.83;;
26269;SDS011;15937;50.612;6.656;2023-04-15T16:40:53;9.15;;;3.88;;
26269;SDS011;15937;50.612;6.656;2023-04-15T16:44:59;8.77;;;3.50;;
26269;SDS011;15937;50.612;6.656;2023-04-15T16:49:00;6.22;;;3.28;;
26269;SDS011;15937;50.612;6.656;2023-04-15T16:53:02;6.22;;;3.60;;
26269;SDS011;15937;50.612;6.656;2023-04-15T16:57:09;7.78;;;3.22;;
26269;SDS011;15937;50.612;6.656;2023-04-15T17:01:11;7.78;;;3.05;;
26269;SDS011;15937;50.612;6.656;2023-04-15T17:05:13;6.20;;;2.95;;
26269;SDS011;15937;50.612;6.656;2023-04-15T17:09:14;11.20;;;2.88;;
26269;SDS011;15937;50.612;6.656;2023-04-15T17:13:16;3.53;;;2.75;;
26269;SDS011;15937;50.612;6.656;2023-04-15T17:17:18;7.22;;;3.33;;
26269;SDS011;15937;50.612;6.656;2023-04-15T17:21:21;10.52;;;3.45;;
26269;SDS011;15937;50.612;6.656;2023-04-15T17:25:24;4.72;;;2.88;;
26269;SDS011;15937;50.612;6.656;2023-04-15T17:29:26;4.88;;;3.45;;
26269;SDS011;15937;50.612;6.656;2023-04-15T17:33:28;7.00;;;3.75;;
26269;SDS011;15937;50.612;6.656;2023-04-15T17:37:49;7.18;;;3.45;;
26269;SDS011;15937;50.612;6.656;2023-04-15T17:41:51;6.65;;;3.85;;
26269;SDS011;15937;50.612;6.656;2023-04-15T17:45:53;5.43;;;3.30;;
26269;SDS011;15937;50.612;6.656;2023-04-15T17:49:56;9.82;;;3.30;;
26269;SDS011;15937;50.612;6.656;2023-04-15T17:53:58;5.25;;;3.15;;
26269;SDS011;15937;50.612;6.656;2023-04-15T17:58:00;6.93;;;3.72;;
26269;SDS011;15937;50.612;6.656;2023-04-15T18:02:01;5.22;;;3.10;;
26269;SDS011;15937;50.612;6.656;2023-04-15T18:06:03;4.35;;;2.75;;
26269;SDS011;15937;50.612;6.656;2023-04-15T18:10:06;7.25;;;3.15;;
26269;SDS011;15937;50.612;6.656;2023-04-15T18:14:08;6.70;;;3.58;;
26269;SDS011;15937;50.612;6.656;2023-04-15T18:18:11;3.65;;;3.15;;
26269;SDS011;15937;50.612;6.656;2023-04-15T18:22:13;5.32;;;3.15;;
26269;SDS011;15937;50.612;6.656;2023-04-15T18:26:15;6.05;;;3.00;;
26269;SDS011;15937;50.612;6.656;2023-04-15T18:30:16;10.40;;;5.10;;
26269;SDS011;15937;50.612;6.656;2023-04-15T18:34:18;11.52;;;5.68;;
26269;SDS011;15937;50.612;6.656;2023-04-15T18:38:20;14.02;;;5.85;;
26269;SDS011;15937;50.612;6.656;2023-04-15T18:42:22;11.40;;;6.05;;
26269;SDS011;15937;50.612;6.656;2023-04-15T18:46:26;16.20;;;5.40;;
26269;SDS011;15937;50.612;6.656;2023-04-15T18:50:28;14.13;;;4.05;;
26269;SDS011;15937;50.612;6.656;2023-04-15T18:54:29;8.57;;;3.47;;
26269;SDS011;15937;50.612;6.656;2023-04-15T18:58:32;17.42;;;8.48;;
26269;SDS011;15937;50.612;6.656;2023-04-15T19:02:54;7.50;;;4.82;;
26269;SDS011;15937;50.612;6.656;2023-04-15T19:06:57;4.18;;;2.80;;
26269;SDS011;15937;50.612;6.656;2023-04-15T19:10:59;8.45;;;3.60;;
26269;SDS011;15937;50.612;6.656;2023-04-15T19:15:01;6.90;;;2.80;;
26269;SDS011;15937;50.612;6.656;2023-04-15T19:19:03;8.10;;;3.15;;
26269;SDS011;15937;50.612;6.656;2023-04-15T19:27:08;3.20;;;2.50;;
26269;SDS011;15937;50.612;6.656;2023-04-15T19:31:10;4.03;;;2.97;;
26269;SDS011;15937;50.612;6.656;2023-04-15T19:35:12;8.43;;;3.80;;
26269;SDS011;15937;50.612;6.656;2023-04-15T19:39:14;7.13;;;3.10;;
26269;SDS011;15937;50.612;6.656;2023-04-15T19:43:16;8.13;;;3.17;;
26269;SDS011;15937;50.612;6.656;2023-04-15T19:47:17;8.85;;;3.97;;
26269;SDS011;15937;50.612;6.656;2023-04-15T19:51:19;9.68;;;2.72;;
26269;SDS011;15937;50.612;6.656;2023-04-15T19:55:21;4.47;;;2.22;;
26269;SDS011;15937;50.612;6.656;2023-04-15T19:59:23;9.18;;;3.55;;
26269;SDS011;15937;50.612;6.656;2023-04-15T20:03:25;11.05;;;2.85;;
26269;SDS011;15937;50.612;6.656;2023-04-15T20:07:27;6.85;;;3.53;;
26269;SDS011;15937;50.612;6.656;2023-04-15T20:11:28;8.80;;;3.88;;
26269;SDS011;15937;50.612;6.656;2023-04-15T20:15:50;7.82;;;3.30;;
26269;SDS011;15937;50.612;6.656;2023-04-15T20:19:52;11.55;;;4.40;;
26269;SDS011;15937;50.612;6.656;2023-04-15T20:23:54;14.65;;;4.30;;
26269;SDS011;15937;50.612;6.656;2023-04-15T20:27:56;7.57;;;3.85;;
26269;SDS011;15937;50.612;6.656;2023-04-15T20:32:01;4.07;;;3.58;;
26269;SDS011;15937;50.612;6.656;2023-04-15T20:36:02;12.75;;;4.82;;
26269;SDS011;15937;50.612;6.656;2023-04-15T20:40:04;7.47;;;4.72;;
26269;SDS011;15937;50.612;6.656;2023-04-15T20:44:07;5.53;;;4.17;;
26269;SDS011;15937;50.612;6.656;2023-04-15T20:48:08;9.35;;;5.15;;
26269;SDS011;15937;50.612;6.656;2023-04-15T20:52:11;6.23;;;4.17;;
26269;SDS011;15937;50.612;6.656;2023-04-15T20:56:12;9.07;;;5.10;;
26269;SDS011;15937;50.612;6.656;2023-04-15T21:00:14;6.78;;;4.20;;
26269;SDS011;15937;50.612;6.656;2023-04-15T21:04:16;10.32;;;4.35;;
26269;SDS011;15937;50.612;6.656;2023-04-15T21:08:18;6.72;;;3.55;;
26269;SDS011;15937;50.612;6.656;2023-04-15T21:12:21;5.75;;;3.55;;
26269;SDS011;15937;50.612;6.656;2023-04-15T21:16:22;4.45;;;3.35;;
26269;SDS011;15937;50.612;6.656;2023-04-15T21:20:24;12.32;;;4.75;;
26269;SDS011;15937;50.612;6.656;2023-04-15T21:24:27;8.57;;;4.23;;
26269;SDS011;15937;50.612;6.656;2023-04-15T21:28:29;8.17;;;4.97;;
26269;SDS011;15937;50.612;6.656;2023-04-15T21:32:31;7.80;;;4.60;;
26269;SDS011;15937;50.612;6.656;2023-04-15T21:36:33;9.07;;;5.68;;
26269;SDS011;15937;50.612;6.656;2023-04-15T21:40:35;11.68;;;5.32;;
26269;SDS011;15937;50.612;6.656;2023-04-15T21:44:40;4.25;;;3.85;;
26269;SDS011;15937;50.612;6.656;2023-04-15T21:48:42;6.95;;;5.03;;
26269;SDS011;15937;50.612;6.656;2023-04-15T21:52:44;10.68;;;7.28;;
26269;SDS011;15937;50.612;6.656;2023-04-15T21:56:46;9.73;;;6.72;;
26269;SDS011;15937;50.612;6.656;2023-04-15T22:00:50;10.95;;;7.53;;
26269;SDS011;15937;50.612;6.656;2023-04-15T22:04:53;9.70;;;6.35;;
26269;SDS011;15937;50.612;6.656;2023-04-15T22:08:55;8.50;;;5.00;;
26269;SDS011;15937;50.612;6.656;2023-04-15T22:13:11;8.40;;;5.82;;
26269;SDS011;15937;50.612;6.656;2023-04-15T22:17:13;7.47;;;4.63;;
26269;SDS011;15937;50.612;6.656;2023-04-15T22:21:15;4.55;;;3.55;;
26269;SDS011;15937;50.612;6.656;2023-04-15T22:25:17;6.28;;;4.60;;
26269;SDS011;15937;50.612;6.656;2023-04-15T22:29:18;5.40;;;2.97;;
26269;SDS011;15937;50.612;6.656;2023-04-15T22:33:20;11.05;;;3.10;;
26269;SDS011;15937;50.612;6.656;2023-04-15T22:37:22;6.55;;;3.65;;
26269;SDS011;15937;50.612;6.656;2023-04-15T22:41:24;5.93;;;3.33;;
26269;SDS011;15937;50.612;6.656;2023-04-15T22:45:26;4.90;;;3.33;;
26269;SDS011;15937;50.612;6.656;2023-04-15T22:49:28;3.42;;;3.13;;
26269;SDS011;15937;50.612;6.656;2023-04-15T22:53:29;5.57;;;4.22;;
26269;SDS011;15937;50.612;6.656;2023-04-15T22:57:31;10.93;;;4.38;;
26269;SDS011;15937;50.612;6.656;2023-04-15T23:01:33;17.13;;;5.53;;
26269;SDS011;15937;50.612;6.656;2023-04-15T23:05:35;9.13;;;5.50;;
26269;SDS011;15937;50.612;6.656;2023-04-15T23:09:38;8.67;;;5.27;;
26269;SDS011;15937;50.612;6.656;2023-04-15T23:13:40;6.13;;;3.67;;
26269;SDS011;15937;50.612;6.656;2023-04-15T23:17:41;10.25;;;3.92;;
26269;SDS011;15937;50.612;6.656;2023-04-15T23:21:43;8.40;;;3.95;;
26269;SDS011;15937;50.612;6.656;2023-04-15T23:25:45;12.02;;;5.03;;
26269;SDS011;15937;50.612;6.656;2023-04-15T23:29:48;6.35;;;4.38;;
26269;SDS011;15937;50.612;6.656;2023-04-15T23:33:50;15.68;;;7.05;;
26269;SDS011;15937;50.612;6.656;2023-04-15T23:37:52;15.18;;;5.88;;
26269;SDS011;15937;50.612;6.656;2023-04-15T23:41:54;10.70;;;5.20;;
26269;SDS011;15937;50.612;6.656;2023-04-15T23:45:57;10.68;;;4.75;;
26269;SDS011;15937;50.612;6.656;2023-04-15T23:49:59;15.32;;;7.47;;
26269;SDS011;15937;50.612;6.656;2023-04-15T23:54:00;12.82;;;4.82;;
26269;SDS011;15937;50.612;6.656;2023-04-15T23:58:02;8.75;;;4.88;;
